<?xml version="1.0" encoding="UTF-8" standalone="no" ?>
<gpx xmlns="http://www.topografix.com/GPX/1/1" xmlns:xsi="http://www.w3.org/2001/XMLSchema-instance" xsi:schemaLocation="http://www.topografix.com/GPX/1/1 http://www.topografix.com/GPX/1/1/gpx.xsd" version="1.1" creator="VisuGPX - https://www.visugpx.com">
  <metadata>
    <name>Wargnies-Le-Petit</name>
    <desc><![CDATA[Marche en groupe au départ de Wargnies]]></desc>
  </metadata>
  <trk>
    <name><![CDATA[WLPAUTOUR03:42:49 PM]]></name>
    <trkseg>
      <trkpt lat="50.29564" lon="3.67243">
        <ele>86.66</ele>
        <time>2015-09-16T07:14:05Z</time>
      </trkpt>
      <trkpt lat="50.29566" lon="3.67313">
        <ele>101.08</ele>
        <time>2015-09-16T07:35:26Z</time>
      </trkpt>
      <trkpt lat="50.29562" lon="3.67445">
        <ele>95.31</ele>
        <time>2015-09-16T07:36:31Z</time>
      </trkpt>
      <trkpt lat="50.2958" lon="3.67555">
        <ele>108.77</ele>
        <time>2015-09-16T07:38:10Z</time>
      </trkpt>
      <trkpt lat="50.29534" lon="3.67613">
        <ele>109.73</ele>
        <time>2015-09-16T07:39:58Z</time>
      </trkpt>
      <trkpt lat="50.29445" lon="3.67599">
        <ele>113.09</ele>
        <time>2015-09-16T07:41:25Z</time>
      </trkpt>
      <trkpt lat="50.29345" lon="3.67627">
        <ele>109.25</ele>
        <time>2015-09-16T07:43:21Z</time>
      </trkpt>
      <trkpt lat="50.29232" lon="3.6768">
        <ele>111.65</ele>
        <time>2015-09-16T07:45:26Z</time>
      </trkpt>
      <trkpt lat="50.29143" lon="3.67808">
        <ele>114.05</ele>
        <time>2015-09-16T07:47:32Z</time>
      </trkpt>
      <trkpt lat="50.29132" lon="3.67938">
        <ele>115.5</ele>
        <time>2015-09-16T07:48:50Z</time>
      </trkpt>
      <trkpt lat="50.29096" lon="3.68071">
        <ele>112.61</ele>
        <time>2015-09-16T07:50:05Z</time>
      </trkpt>
      <trkpt lat="50.29093" lon="3.68214">
        <ele>111.17</ele>
        <time>2015-09-16T07:51:27Z</time>
      </trkpt>
      <trkpt lat="50.29161" lon="3.6831">
        <ele>112.61</ele>
        <time>2015-09-16T07:52:46Z</time>
      </trkpt>
      <trkpt lat="50.29219" lon="3.6843">
        <ele>116.94</ele>
        <time>2015-09-16T07:54:11Z</time>
      </trkpt>
      <trkpt lat="50.2926" lon="3.68565">
        <ele>124.63</ele>
        <time>2015-09-16T07:55:30Z</time>
      </trkpt>
      <trkpt lat="50.29284" lon="3.68707">
        <ele>128.47</ele>
        <time>2015-09-16T07:57:07Z</time>
      </trkpt>
      <trkpt lat="50.292" lon="3.68698">
        <ele>121.74</ele>
        <time>2015-09-16T07:58:22Z</time>
      </trkpt>
      <trkpt lat="50.29114" lon="3.68705">
        <ele>121.74</ele>
        <time>2015-09-16T07:59:36Z</time>
      </trkpt>
      <trkpt lat="50.29032" lon="3.68707">
        <ele>122.22</ele>
        <time>2015-09-16T08:00:49Z</time>
      </trkpt>
      <trkpt lat="50.29003" lon="3.68832">
        <ele>113.57</ele>
        <time>2015-09-16T08:01:57Z</time>
      </trkpt>
      <trkpt lat="50.28956" lon="3.68909">
        <ele>114.53</ele>
        <time>2015-09-16T08:04:11Z</time>
      </trkpt>
      <trkpt lat="50.28857" lon="3.68855">
        <ele>113.57</ele>
        <time>2015-09-16T08:05:34Z</time>
      </trkpt>
      <trkpt lat="50.28751" lon="3.688">
        <ele>111.17</ele>
        <time>2015-09-16T08:07:05Z</time>
      </trkpt>
      <trkpt lat="50.28667" lon="3.68752">
        <ele>103</ele>
        <time>2015-09-16T08:08:20Z</time>
      </trkpt>
      <trkpt lat="50.28571" lon="3.68735">
        <ele>96.27</ele>
        <time>2015-09-16T08:09:49Z</time>
      </trkpt>
      <trkpt lat="50.28479" lon="3.68663">
        <ele>105.88</ele>
        <time>2015-09-16T08:11:44Z</time>
      </trkpt>
      <trkpt lat="50.28373" lon="3.68639">
        <ele>107.32</ele>
        <time>2015-09-16T08:13:17Z</time>
      </trkpt>
      <trkpt lat="50.28293" lon="3.68657">
        <ele>118.38</ele>
        <time>2015-09-16T08:14:53Z</time>
      </trkpt>
      <trkpt lat="50.28231" lon="3.68766">
        <ele>115.5</ele>
        <time>2015-09-16T08:16:11Z</time>
      </trkpt>
      <trkpt lat="50.28182" lon="3.68693">
        <ele>113.09</ele>
        <time>2015-09-16T08:18:15Z</time>
      </trkpt>
      <trkpt lat="50.28143" lon="3.68535">
        <ele>115.5</ele>
        <time>2015-09-16T08:19:46Z</time>
      </trkpt>
      <trkpt lat="50.28116" lon="3.68362">
        <ele>124.15</ele>
        <time>2015-09-16T08:21:27Z</time>
      </trkpt>
      <trkpt lat="50.28111" lon="3.6821">
        <ele>124.15</ele>
        <time>2015-09-16T08:22:50Z</time>
      </trkpt>
      <trkpt lat="50.28094" lon="3.68065">
        <ele>112.61</ele>
        <time>2015-09-16T08:24:31Z</time>
      </trkpt>
      <trkpt lat="50.28096" lon="3.67925">
        <ele>112.61</ele>
        <time>2015-09-16T08:25:47Z</time>
      </trkpt>
      <trkpt lat="50.28086" lon="3.67799">
        <ele>111.17</ele>
        <time>2015-09-16T08:26:57Z</time>
      </trkpt>
      <trkpt lat="50.28073" lon="3.67672">
        <ele>116.94</ele>
        <time>2015-09-16T08:28:01Z</time>
      </trkpt>
      <trkpt lat="50.28045" lon="3.67558">
        <ele>110.21</ele>
        <time>2015-09-16T08:29:14Z</time>
      </trkpt>
      <trkpt lat="50.28003" lon="3.67449">
        <ele>103.48</ele>
        <time>2015-09-16T08:30:24Z</time>
      </trkpt>
      <trkpt lat="50.27929" lon="3.67503">
        <ele>108.29</ele>
        <time>2015-09-16T08:31:38Z</time>
      </trkpt>
      <trkpt lat="50.27857" lon="3.67567">
        <ele>102.04</ele>
        <time>2015-09-16T08:32:46Z</time>
      </trkpt>
      <trkpt lat="50.27784" lon="3.6765">
        <ele>107.81</ele>
        <time>2015-09-16T08:34:03Z</time>
      </trkpt>
      <trkpt lat="50.27715" lon="3.67739">
        <ele>111.65</ele>
        <time>2015-09-16T08:35:10Z</time>
      </trkpt>
      <trkpt lat="50.27627" lon="3.67818">
        <ele>105.4</ele>
        <time>2015-09-16T08:36:35Z</time>
      </trkpt>
      <trkpt lat="50.27548" lon="3.67874">
        <ele>98.67</ele>
        <time>2015-09-16T08:37:45Z</time>
      </trkpt>
      <trkpt lat="50.27469" lon="3.67949">
        <ele>100.6</ele>
        <time>2015-09-16T08:39:06Z</time>
      </trkpt>
      <trkpt lat="50.27386" lon="3.68006">
        <ele>105.4</ele>
        <time>2015-09-16T08:45:21Z</time>
      </trkpt>
      <trkpt lat="50.2731" lon="3.68058">
        <ele>112.13</ele>
        <time>2015-09-16T08:49:01Z</time>
      </trkpt>
      <trkpt lat="50.27266" lon="3.67965">
        <ele>107.32</ele>
        <time>2015-09-16T08:50:15Z</time>
      </trkpt>
      <trkpt lat="50.27208" lon="3.67866">
        <ele>97.71</ele>
        <time>2015-09-16T08:51:34Z</time>
      </trkpt>
      <trkpt lat="50.27137" lon="3.6779">
        <ele>105.88</ele>
        <time>2015-09-16T08:53:15Z</time>
      </trkpt>
      <trkpt lat="50.2708" lon="3.67676">
        <ele>104.92</ele>
        <time>2015-09-16T08:54:53Z</time>
      </trkpt>
      <trkpt lat="50.27151" lon="3.67585">
        <ele>112.61</ele>
        <time>2015-09-16T08:56:12Z</time>
      </trkpt>
      <trkpt lat="50.27187" lon="3.67476">
        <ele>124.63</ele>
        <time>2015-09-16T08:57:33Z</time>
      </trkpt>
      <trkpt lat="50.2712" lon="3.6737">
        <ele>123.19</ele>
        <time>2015-09-16T08:58:53Z</time>
      </trkpt>
      <trkpt lat="50.27111" lon="3.67268">
        <ele>117.42</ele>
        <time>2015-09-16T09:00:16Z</time>
      </trkpt>
      <trkpt lat="50.27192" lon="3.67177">
        <ele>118.86</ele>
        <time>2015-09-16T09:01:42Z</time>
      </trkpt>
      <trkpt lat="50.27272" lon="3.67094">
        <ele>113.09</ele>
        <time>2015-09-16T09:02:59Z</time>
      </trkpt>
      <trkpt lat="50.27358" lon="3.67009">
        <ele>113.09</ele>
        <time>2015-09-16T09:04:22Z</time>
      </trkpt>
      <trkpt lat="50.27442" lon="3.66937">
        <ele>114.53</ele>
        <time>2015-09-16T09:05:40Z</time>
      </trkpt>
      <trkpt lat="50.27521" lon="3.66871">
        <ele>114.53</ele>
        <time>2015-09-16T09:06:55Z</time>
      </trkpt>
      <trkpt lat="50.27593" lon="3.66788">
        <ele>107.32</ele>
        <time>2015-09-16T09:08:05Z</time>
      </trkpt>
      <trkpt lat="50.27678" lon="3.66703">
        <ele>103.96</ele>
        <time>2015-09-16T09:09:44Z</time>
      </trkpt>
      <trkpt lat="50.27775" lon="3.66669">
        <ele>118.38</ele>
        <time>2015-09-16T09:11:04Z</time>
      </trkpt>
      <trkpt lat="50.27868" lon="3.66636">
        <ele>115.98</ele>
        <time>2015-09-16T09:12:28Z</time>
      </trkpt>
      <trkpt lat="50.27956" lon="3.66594">
        <ele>116.46</ele>
        <time>2015-09-16T09:13:48Z</time>
      </trkpt>
      <trkpt lat="50.28039" lon="3.66577">
        <ele>94.83</ele>
        <time>2015-09-16T09:14:55Z</time>
      </trkpt>
      <trkpt lat="50.28122" lon="3.66581">
        <ele>94.35</ele>
        <time>2015-09-16T09:16:05Z</time>
      </trkpt>
      <trkpt lat="50.28204" lon="3.6662">
        <ele>93.39</ele>
        <time>2015-09-16T09:17:15Z</time>
      </trkpt>
      <trkpt lat="50.28296" lon="3.66637">
        <ele>101.08</ele>
        <time>2015-09-16T09:18:43Z</time>
      </trkpt>
      <trkpt lat="50.28392" lon="3.66628">
        <ele>107.32</ele>
        <time>2015-09-16T09:20:04Z</time>
      </trkpt>
      <trkpt lat="50.28482" lon="3.66634">
        <ele>117.9</ele>
        <time>2015-09-16T09:21:30Z</time>
      </trkpt>
      <trkpt lat="50.2858" lon="3.66661">
        <ele>112.13</ele>
        <time>2015-09-16T09:22:47Z</time>
      </trkpt>
      <trkpt lat="50.28668" lon="3.66691">
        <ele>116.46</ele>
        <time>2015-09-16T09:23:57Z</time>
      </trkpt>
      <trkpt lat="50.28751" lon="3.66661">
        <ele>111.65</ele>
        <time>2015-09-16T09:25:09Z</time>
      </trkpt>
      <trkpt lat="50.28796" lon="3.66775">
        <ele>109.25</ele>
        <time>2015-09-16T09:26:15Z</time>
      </trkpt>
      <trkpt lat="50.28859" lon="3.66847">
        <ele>98.67</ele>
        <time>2015-09-16T09:28:33Z</time>
      </trkpt>
      <trkpt lat="50.28994" lon="3.66791">
        <ele>107.32</ele>
        <time>2015-09-16T09:31:02Z</time>
      </trkpt>
      <trkpt lat="50.29089" lon="3.66666">
        <ele>102.52</ele>
        <time>2015-09-16T09:32:58Z</time>
      </trkpt>
      <trkpt lat="50.29125" lon="3.66529">
        <ele>101.08</ele>
        <time>2015-09-16T09:34:06Z</time>
      </trkpt>
      <trkpt lat="50.29177" lon="3.66407">
        <ele>96.75</ele>
        <time>2015-09-16T09:35:24Z</time>
      </trkpt>
      <trkpt lat="50.29229" lon="3.66286">
        <ele>93.39</ele>
        <time>2015-09-16T09:36:41Z</time>
      </trkpt>
      <trkpt lat="50.29287" lon="3.66172">
        <ele>97.23</ele>
        <time>2015-09-16T09:38:01Z</time>
      </trkpt>
      <trkpt lat="50.29344" lon="3.66054">
        <ele>107.32</ele>
        <time>2015-09-16T09:39:30Z</time>
      </trkpt>
      <trkpt lat="50.29414" lon="3.66056">
        <ele>109.25</ele>
        <time>2015-09-16T09:40:51Z</time>
      </trkpt>
      <trkpt lat="50.29436" lon="3.6618">
        <ele>111.65</ele>
        <time>2015-09-16T09:42:00Z</time>
      </trkpt>
      <trkpt lat="50.29454" lon="3.66306">
        <ele>107.81</ele>
        <time>2015-09-16T09:43:10Z</time>
      </trkpt>
      <trkpt lat="50.29461" lon="3.66445">
        <ele>112.61</ele>
        <time>2015-09-16T09:44:15Z</time>
      </trkpt>
      <trkpt lat="50.29471" lon="3.66568">
        <ele>106.84</ele>
        <time>2015-09-16T09:45:25Z</time>
      </trkpt>
      <trkpt lat="50.29471" lon="3.66679">
        <ele>84.73</ele>
        <time>2015-09-16T09:46:30Z</time>
      </trkpt>
      <trkpt lat="50.29476" lon="3.66789">
        <ele>78</ele>
        <time>2015-09-16T09:47:31Z</time>
      </trkpt>
      <trkpt lat="50.29461" lon="3.66925">
        <ele>87.14</ele>
        <time>2015-09-16T09:48:52Z</time>
      </trkpt>
      <trkpt lat="50.29496" lon="3.67055">
        <ele>81.85</ele>
        <time>2015-09-16T09:50:13Z</time>
      </trkpt>
      <trkpt lat="50.29543" lon="3.67187">
        <ele>85.69</ele>
        <time>2015-09-16T09:51:40Z</time>
      </trkpt>
      <trkpt lat="50.29569" lon="3.67249">
        <ele>91.46</ele>
        <time>2015-09-16T09:52:57Z</time>
      </trkpt>
    </trkseg>
  </trk>
</gpx>